Wetterdaten: Woche 15.01.18 - 21.01.18 (KW3)
Datum Zeit Temp. Aussen Temp. o. S. +5cm Feuchte Auss BlattFeu 1 Luftdruck Regen Sonnenschein Regendauer Solar Windben Empfang
15.01.2018 00:00 1,3 C 1,1 C -0,0 C 89 % 0 lf 1017,3 hPa 0,0 l/m 0,00 h 0,00 h 0 W/m 21,8 km/h (4 Bft) 98,91 %
15.01.2018 01:00 1,4 C 1,1 C 0,0 C 89 % 0 lf 1016,5 hPa 0,0 l/m 0,00 h 0,00 h 0 W/m 22,7 km/h (4 Bft) 95,68 %
15.01.2018 02:00 1,5 C 1,5 C 0,3 C 89 % 0 lf 1015,8 hPa 0,0 l/m 0,00 h 0,00 h 0 W/m 23,9 km/h (4 Bft) 95,88 %
15.01.2018 03:00 1,9 C 2,1 C 1,0 C 89 % 0 lf 1015,1 hPa 0,0 l/m 0,00 h 0,00 h 0 W/m 22,6 km/h (4 Bft) 97,79 %
15.01.2018 04:00 2,1 C 2,2 C 1,1 C 89 % 0 lf 1014,3 hPa 0,0 l/m 0,00 h 0,00 h 0 W/m 20,2 km/h (4 Bft) 97,41 %
15.01.2018 05:00 2,4 C 2,6 C 1,6 C 89 % 0 lf 1013,3 hPa 0,0 l/m 0,00 h 0,00 h 0 W/m 16,4 km/h (3 Bft) 94,63 %
15.01.2018 06:00 2,8 C 3,0 C 1,9 C 90 % 0 lf 1012,5 hPa 0,0 l/m 0,00 h 0,00 h 0 W/m 12,9 km/h (3 Bft) 98,48 %
15.01.2018 07:00 2,7 C 2,3 C 1,0 C 89 % 0 lf 1011,6 hPa 0,0 l/m 0,00 h 0,00 h 0 W/m 17,4 km/h (3 Bft) 96,27 %
15.01.2018 08:00 1,8 C 1,7 C 0,5 C 90 % 0 lf 1011,1 hPa 0,0 l/m 0,03 h 0,00 h 10 W/m 14,0 km/h (3 Bft) 97,03 %
15.01.2018 09:00 2,0 C 2,4 C 1,4 C 92 % 0 lf 1010,3 hPa 0,0 l/m 0,00 h 0,00 h 36 W/m 10,9 km/h (2 Bft) 96,56 %
15.01.2018 10:00 3,1 C 4,2 C 3,2 C 93 % 0 lf 1009,2 hPa 0,0 l/m 0,30 h 0,00 h 111 W/m 18,3 km/h (3 Bft) 94,90 %
15.01.2018 11:00 4,8 C 5,8 C 4,7 C 91 % 0 lf 1008,0 hPa 0,0 l/m 0,00 h 0,00 h 69 W/m 19,1 km/h (3 Bft) 98,60 %
15.01.2018 12:00 7,1 C 7,4 C 6,4 C 85 % 0 lf 1006,2 hPa 0,0 l/m 0,00 h 0,10 h 55 W/m 33,6 km/h (5 Bft) 95,87 %
15.01.2018 13:00 7,4 C 7,5 C 6,2 C 83 % 0 lf 1003,7 hPa 0,0 l/m 0,00 h 0,10 h 52 W/m 33,0 km/h (5 Bft) 94,74 %
15.01.2018 14:00 7,2 C 6,2 C 5,0 C 84 % 8 lf 1002,0 hPa 0,4 l/m 0,00 h 0,73 h 38 W/m 35,1 km/h (5 Bft) 97,88 %
15.01.2018 15:00 7,2 C 6,7 C 5,1 C 84 % 1 lf 1000,2 hPa 0,0 l/m 0,00 h 0,23 h 23 W/m 36,6 km/h (5 Bft) 97,60 %
15.01.2018 16:00 7,0 C 6,1 C 4,6 C 84 % 1 lf 998,1 hPa 0,0 l/m 0,00 h 1,00 h 10 W/m 40,3 km/h (6 Bft) 95,27 %
15.01.2018 17:00 6,9 C 5,6 C 4,2 C 85 % 11 lf 996,3 hPa 1,8 l/m 0,00 h 1,00 h 0 W/m 37,9 km/h (5 Bft) 96,72 %
15.01.2018 18:00 6,1 C 4,9 C 3,9 C 91 % 15 lf 994,7 hPa 1,6 l/m 0,00 h 1,00 h 0 W/m 37,3 km/h (5 Bft) 96,94 %
15.01.2018 19:00 6,0 C 5,0 C 3,9 C 90 % 11 lf 993,1 hPa 0,2 l/m 0,00 h 0,67 h 0 W/m 41,5 km/h (6 Bft) 96,94 %
15.01.2018 20:00 6,6 C 5,6 C 4,1 C 87 % 1 lf 992,1 hPa 0,0 l/m 0,00 h 0,97 h 0 W/m 39,5 km/h (6 Bft) 95,95 %
15.01.2018 21:00 6,8 C 6,1 C 4,5 C 90 % 10 lf 991,7 hPa 0,4 l/m 0,00 h 0,63 h 0 W/m 35,1 km/h (5 Bft) 96,32 %
15.01.2018 22:00 7,0 C 6,4 C 5,2 C 94 % 15 lf 991,6 hPa 0,4 l/m 0,00 h 0,73 h 0 W/m 33,4 km/h (5 Bft) 95,88 %
15.01.2018 23:00 6,9 C 6,0 C 4,8 C 95 % 15 lf 991,8 hPa 2,2 l/m 0,00 h 0,63 h 0 W/m 22,9 km/h (4 Bft) 96,87 %
16.01.2018 00:00 6,4 C 5,8 C 4,5 C 95 % 15 lf 992,4 hPa 0,0 l/m 0,00 h 0,03 h 0 W/m 29,8 km/h (5 Bft) 98,15 %
16.01.2018 01:00 6,1 C 5,5 C 4,2 C 94 % 15 lf 993,2 hPa 0,0 l/m 0,00 h 0,23 h 0 W/m 33,8 km/h (5 Bft) 93,14 %
16.01.2018 02:00 6,1 C 5,6 C 4,0 C 93 % 6 lf 992,8 hPa 0,0 l/m 0,00 h 0,00 h 0 W/m 32,5 km/h (5 Bft) 98,55 %
16.01.2018 03:00 6,2 C 6,1 C 4,2 C 92 % 0 lf 992,1 hPa 0,0 l/m 0,00 h 0,00 h 0 W/m 26,2 km/h (4 Bft) 97,87 %
16.01.2018 04:00 6,3 C 5,5 C 4,2 C 92 % 10 lf 991,7 hPa 0,6 l/m 0,00 h 0,40 h 0 W/m 28,9 km/h (5 Bft) 93,10 %
16.01.2018 05:00 6,1 C 5,1 C 3,9 C 92 % 15 lf 991,1 hPa 0,0 l/m 0,00 h 0,32 h 0 W/m 31,2 km/h (5 Bft) 95,88 %
16.01.2018 06:00 6,2 C 5,5 C 3,9 C 91 % 3 lf 990,6 hPa 0,0 l/m 0,00 h 0,13 h 0 W/m 30,2 km/h (5 Bft) 97,24 %
16.01.2018 07:00 6,2 C 5,6 C 3,9 C 90 % 3 lf 990,5 hPa 0,0 l/m 0,00 h 0,33 h 0 W/m 30,9 km/h (5 Bft) 95,87 %
16.01.2018 08:00 6,3 C 6,1 C 4,2 C 91 % 1 lf 990,4 hPa 0,0 l/m 0,00 h 0,33 h 9 W/m 31,6 km/h (5 Bft) 98,58 %
16.01.2018 09:00 6,5 C 6,7 C 4,9 C 89 % 3 lf 990,6 hPa 0,0 l/m 0,23 h 0,53 h 59 W/m 36,7 km/h (5 Bft) 93,83 %
16.01.2018 10:00 4,7 C 3,4 C 1,5 C 90 % 15 lf 991,3 hPa 4,4 l/m 0,00 h 0,93 h 14 W/m 39,3 km/h (6 Bft) 96,52 %
16.01.2018 11:00 2,6 C 2,3 C 0,5 C 94 % 15 lf 992,3 hPa 2,2 l/m 0,00 h 0,77 h 40 W/m 26,5 km/h (4 Bft) 96,58 %
16.01.2018 12:00 2,6 C 2,5 C 1,1 C 96 % 15 lf 993,1 hPa 1,8 l/m 0,00 h 0,57 h 58 W/m 23,4 km/h (4 Bft) 97,16 %
16.01.2018 13:00 3,1 C 3,3 C 2,2 C 96 % 15 lf 993,1 hPa 0,6 l/m 0,10 h 0,13 h 94 W/m 21,2 km/h (4 Bft) 94,91 %
16.01.2018 14:00 4,0 C 6,2 C 2,9 C 96 % 15 lf 993,1 hPa 1,0 l/m 0,50 h 0,30 h 128 W/m 19,3 km/h (3 Bft) 96,66 %
16.01.2018 15:00 3,9 C 3,1 C 1,8 C 92 % 15 lf 993,6 hPa 0,6 l/m 0,03 h 0,77 h 40 W/m 32,4 km/h (5 Bft) 95,38 %
16.01.2018 16:00 3,2 C 2,7 C 1,1 C 92 % 15 lf 993,9 hPa 0,2 l/m 0,03 h 0,27 h 19 W/m 21,3 km/h (4 Bft) 97,06 %
16.01.2018 17:00 2,5 C 1,9 C 0,6 C 92 % 15 lf 994,3 hPa 0,8 l/m 0,00 h 0,40 h 0 W/m 23,2 km/h (4 Bft) 95,00 %
16.01.2018 18:00 1,9 C 1,0 C -0,1 C 93 % 15 lf 993,9 hPa 0,0 l/m 0,00 h 0,00 h 0 W/m 12,5 km/h (3 Bft) 96,22 %
16.01.2018 19:00 1,8 C 1,1 C -0,2 C 94 % 15 lf 993,6 hPa 0,0 l/m 0,00 h 0,00 h 0 W/m 13,7 km/h (3 Bft) 98,36 %
16.01.2018 20:00 1,8 C 1,3 C 0,0 C 95 % 15 lf 993,4 hPa 0,0 l/m 0,00 h 0,00 h 0 W/m 15,9 km/h (3 Bft) 95,87 %
16.01.2018 21:00 2,3 C 2,1 C 0,4 C 94 % 15 lf 993,0 hPa 0,0 l/m 0,00 h 0,00 h 0 W/m 19,7 km/h (3 Bft) 95,09 %
16.01.2018 22:00 2,7 C 2,4 C 0,6 C 92 % 15 lf 992,6 hPa 0,0 l/m 0,00 h 0,00 h 0 W/m 21,8 km/h (4 Bft) 96,01 %
16.01.2018 23:00 3,3 C 3,1 C 1,3 C 92 % 12 lf 992,3 hPa 0,2 l/m 0,00 h 0,00 h 0 W/m 26,7 km/h (4 Bft) 98,50 %
17.01.2018 00:00 3,6 C 3,3 C 1,8 C 91 % 2 lf 991,9 hPa 0,2 l/m 0,00 h 0,17 h 0 W/m 22,6 km/h (4 Bft) 95,61 %
17.01.2018 01:00 3,6 C 3,4 C 2,0 C 91 % 0 lf 991,3 hPa 0,0 l/m 0,00 h 0,00 h 0 W/m 24,3 km/h (4 Bft) 94,73 %
17.01.2018 02:00 3,5 C 3,1 C 1,7 C 92 % 14 lf 991,3 hPa 0,4 l/m 0,00 h 0,80 h 0 W/m 35,8 km/h (5 Bft) 97,79 %
17.01.2018 03:00 2,8 C 2,0 C 0,0 C 91 % 15 lf 991,9 hPa 0,2 l/m 0,00 h 0,97 h 0 W/m 24,6 km/h (4 Bft) 94,66 %
17.01.2018 04:00 1,7 C 1,1 C -0,4 C 93 % 15 lf 992,4 hPa 0,0 l/m 0,00 h 0,57 h 0 W/m 28,4 km/h (4 Bft) 98,42 %
17.01.2018 05:00 1,4 C 0,7 C -0,5 C 94 % 15 lf 993,3 hPa 0,6 l/m 0,00 h 0,77 h 0 W/m 30,1 km/h (5 Bft) 96,32 %
17.01.2018 06:00 0,9 C 0,6 C -0,6 C 95 % 15 lf 994,4 hPa 0,4 l/m 0,00 h 0,43 h 0 W/m 31,2 km/h (5 Bft) 95,03 %
17.01.2018 07:00 1,0 C 0,6 C -0,7 C 95 % 15 lf 995,4 hPa 0,0 l/m 0,00 h 0,40 h 0 W/m 29,9 km/h (5 Bft) 97,65 %
17.01.2018 08:00 1,1 C 0,7 C -0,6 C 95 % 15 lf 996,8 hPa 0,2 l/m 0,00 h 0,37 h 8 W/m 33,2 km/h (5 Bft) 97,57 %
17.01.2018 09:00 1,1 C 0,9 C -0,6 C 94 % 15 lf 998,1 hPa 0,2 l/m 0,17 h 0,17 h 46 W/m 33,7 km/h (5 Bft) 94,34 %
17.01.2018 10:00 1,5 C 2,1 C 0,1 C 94 % 7 lf 999,2 hPa 0,4 l/m 0,70 h 0,33 h 140 W/m 34,3 km/h (5 Bft) 96,51 %
17.01.2018 11:00 2,0 C 3,2 C 0,8 C 94 % 0 lf 999,9 hPa 0,6 l/m 0,53 h 0,27 h 155 W/m 41,5 km/h (6 Bft) 95,76 %
17.01.2018 12:00 2,4 C 2,7 C 1,2 C 93 % 8 lf 1000,5 hPa 0,8 l/m 0,07 h 0,73 h 95 W/m 41,0 km/h (6 Bft) 97,01 %
17.01.2018 13:00 2,9 C 4,7 C 1,8 C 94 % 12 lf 1000,8 hPa 0,6 l/m 0,40 h 0,13 h 161 W/m 42,1 km/h (6 Bft) 95,45 %
17.01.2018 14:00 3,7 C 3,8 C 2,1 C 92 % 10 lf 1001,4 hPa 0,8 l/m 0,07 h 0,67 h 67 W/m 41,0 km/h (6 Bft) 96,65 %
17.01.2018 15:00 3,7 C 4,1 C 2,3 C 91 % 15 lf 1002,6 hPa 0,4 l/m 0,33 h 0,87 h 75 W/m 33,3 km/h (5 Bft) 97,38 %
17.01.2018 16:00 4,0 C 4,0 C 1,9 C 88 % 1 lf 1003,9 hPa 0,2 l/m 0,10 h 0,73 h 23 W/m 32,1 km/h (5 Bft) 97,16 %
17.01.2018 17:00 3,8 C 3,4 C 1,2 C 86 % 0 lf 1005,1 hPa 0,2 l/m 0,00 h 0,10 h 4 W/m 27,9 km/h (4 Bft) 94,00 %
17.01.2018 18:00 3,7 C 3,4 C 1,3 C 87 % 0 lf 1005,8 hPa 0,0 l/m 0,00 h 0,00 h 0 W/m 26,6 km/h (4 Bft) 98,19 %
17.01.2018 19:00 3,6 C 3,2 C 1,7 C 86 % 0 lf 1006,0 hPa 0,0 l/m 0,00 h 0,00 h 0 W/m 28,4 km/h (4 Bft) 96,78 %
17.01.2018 20:00 3,6 C 3,3 C 1,7 C 85 % 0 lf 1006,3 hPa 0,0 l/m 0,00 h 0,00 h 0 W/m 30,2 km/h (5 Bft) 97,48 %
17.01.2018 21:00 3,6 C 3,3 C 1,8 C 85 % 0 lf 1006,3 hPa 0,0 l/m 0,00 h 0,00 h 0 W/m 28,8 km/h (5 Bft) 94,75 %
17.01.2018 22:00 3,7 C 3,5 C 1,9 C 86 % 2 lf 1006,5 hPa 0,0 l/m 0,00 h 0,10 h 0 W/m 26,4 km/h (4 Bft) 96,67 %
17.01.2018 23:00 3,7 C 3,4 C 2,1 C 86 % 0 lf 1006,3 hPa 0,0 l/m 0,00 h 0,00 h 0 W/m 24,1 km/h (4 Bft) 97,22 %
18.01.2018 00:00 3,8 C 3,8 C 2,2 C 86 % 0 lf 1005,8 hPa 0,0 l/m 0,00 h 0,00 h 0 W/m 25,6 km/h (4 Bft) 95,56 %
18.01.2018 01:00 4,1 C 3,9 C 2,4 C 86 % 0 lf 1004,8 hPa 0,0 l/m 0,00 h 0,00 h 0 W/m 26,7 km/h (4 Bft) 96,23 %
18.01.2018 02:00 4,2 C 4,1 C 2,8 C 88 % 0 lf 1003,2 hPa 0,0 l/m 0,00 h 0,00 h 0 W/m 24,9 km/h (4 Bft) 96,72 %
18.01.2018 03:00 4,5 C 4,0 C 2,6 C 89 % 7 lf 1001,5 hPa 0,2 l/m 0,00 h 0,70 h 0 W/m 29,7 km/h (5 Bft) 96,80 %
18.01.2018 04:00 4,1 C 3,2 C 2,2 C 92 % 15 lf 998,5 hPa 1,2 l/m 0,00 h 1,00 h 0 W/m 31,3 km/h (5 Bft) 97,20 %
18.01.2018 05:00 3,7 C 3,0 C 2,2 C 94 % 15 lf 995,1 hPa 1,4 l/m 0,00 h 0,97 h 0 W/m 37,2 km/h (5 Bft) 95,75 %
18.01.2018 06:00 4,5 C 4,1 C 3,0 C 96 % 15 lf 992,1 hPa 0,2 l/m 0,00 h 0,88 h 0 W/m 47,0 km/h (6 Bft) 95,45 %
18.01.2018 07:00 6,1 C 5,3 C 4,2 C 95 % 15 lf 990,0 hPa 0,4 l/m 0,00 h 1,00 h 0 W/m 52,0 km/h (7 Bft) 98,79 %
18.01.2018 08:00 7,4 C 6,8 C 5,5 C 95 % 15 lf 988,7 hPa 0,4 l/m 0,00 h 1,00 h 8 W/m 49,0 km/h (6 Bft) 94,27 %
18.01.2018 09:00 9,3 C 8,3 C 6,9 C 89 % 4 lf 988,1 hPa 0,0 l/m 0,00 h 0,70 h 33 W/m 60,8 km/h (7 Bft) 96,49 %
18.01.2018 10:00 10,0 C 10,2 C 7,9 C 71 % 0 lf 989,0 hPa 0,0 l/m 0,03 h 0,07 h 72 W/m 78,9 km/h (9 Bft) 97,48 %
18.01.2018 11:00 8,0 C 8,4 C 6,9 C 70 % 0 lf 992,1 hPa 0,0 l/m 0,07 h 0,00 h 119 W/m 78,2 km/h (9 Bft) 95,81 %
18.01.2018 12:00 6,5 C 7,2 C 5,5 C 79 % 4 lf 995,1 hPa 0,0 l/m 0,10 h 0,30 h 134 W/m 61,8 km/h (7 Bft) 96,18 %
18.01.2018 13:00 5,9 C 6,2 C 4,5 C 85 % 11 lf 997,2 hPa 0,0 l/m 0,10 h 0,80 h 103 W/m 51,4 km/h (7 Bft) 97,50 %
18.01.2018 14:00 5,7 C 6,1 C 4,3 C 85 % 10 lf 998,5 hPa 0,0 l/m 0,03 h 0,83 h 76 W/m 43,0 km/h (6 Bft) 94,06 %
18.01.2018 15:00 5,9 C 6,0 C 4,6 C 80 % 0 lf 999,5 hPa 0,0 l/m 0,00 h 0,07 h 45 W/m 36,4 km/h (5 Bft) 98,73 %
18.01.2018 16:00 5,8 C 5,6 C 4,3 C 79 % 0 lf 1000,3 hPa 0,0 l/m 0,00 h 0,00 h 12 W/m 32,4 km/h (5 Bft) 93,95 %
18.01.2018 17:00 5,5 C 5,1 C 3,9 C 80 % 0 lf 1000,8 hPa 0,0 l/m 0,00 h 0,00 h 4 W/m 19,1 km/h (3 Bft) 96,58 %
18.01.2018 18:00 4,9 C 4,2 C 2,7 C 85 % 9 lf 1001,2 hPa 0,2 l/m 0,00 h 0,53 h 0 W/m 26,4 km/h (4 Bft) 97,93 %
18.01.2018 19:00 3,8 C 2,4 C 1,4 C 91 % 15 lf 1001,3 hPa 0,2 l/m 0,00 h 0,00 h 0 W/m 11,3 km/h (2 Bft) 96,37 %
18.01.2018 20:00 2,8 C 1,7 C 0,5 C 92 % 15 lf 1001,3 hPa 0,0 l/m 0,00 h 0,00 h 0 W/m 8,9 km/h (2 Bft) 95,01 %
18.01.2018 21:00 2,3 C 2,0 C 0,8 C 93 % 15 lf 1001,3 hPa 0,0 l/m 0,00 h 0,00 h 0 W/m 7,2 km/h (2 Bft) 97,94 %
18.01.2018 22:00 2,6 C 2,6 C 1,1 C 94 % 15 lf 1001,1 hPa 0,0 l/m 0,00 h 0,00 h 0 W/m 7,4 km/h (2 Bft) 96,13 %
18.01.2018 23:00 2,7 C 2,8 C 1,1 C 95 % 15 lf 1001,3 hPa 0,0 l/m 0,00 h 0,00 h 0 W/m 8,2 km/h (2 Bft) 96,59 %
19.01.2018 00:00 3,2 C 2,9 C 1,7 C 95 % 15 lf 1001,8 hPa 0,2 l/m 0,00 h 0,37 h 0 W/m 18,7 km/h (3 Bft) 96,63 %
19.01.2018 01:00 3,0 C 2,4 C 1,6 C 95 % 15 lf 1002,2 hPa 0,2 l/m 0,00 h 0,10 h 0 W/m 22,2 km/h (4 Bft) 95,17 %
19.01.2018 02:00 2,5 C 1,7 C 0,9 C 95 % 15 lf 1002,7 hPa 0,6 l/m 0,00 h 0,83 h 0 W/m 22,9 km/h (4 Bft) 98,57 %
19.01.2018 03:00 2,1 C 1,9 C 1,0 C 96 % 15 lf 1002,9 hPa 0,4 l/m 0,00 h 0,37 h 0 W/m 19,9 km/h (4 Bft) 96,03 %
19.01.2018 04:00 2,6 C 2,1 C 1,3 C 96 % 15 lf 1003,3 hPa 0,4 l/m 0,00 h 0,37 h 0 W/m 24,9 km/h (4 Bft) 95,66 %
19.01.2018 05:00 2,2 C 1,9 C 1,1 C 96 % 15 lf 1004,0 hPa 0,2 l/m 0,00 h 0,55 h 0 W/m 19,5 km/h (3 Bft) 95,76 %
19.01.2018 06:00 2,5 C 2,3 C 1,5 C 97 % 15 lf 1004,6 hPa 0,8 l/m 0,00 h 0,83 h 0 W/m 16,4 km/h (3 Bft) 97,51 %
19.01.2018 07:00 2,8 C 2,4 C 1,7 C 97 % 15 lf 1005,5 hPa 0,4 l/m 0,00 h 0,30 h 0 W/m 22,1 km/h (4 Bft) 96,80 %
19.01.2018 08:00 2,7 C 2,2 C 1,5 C 97 % 15 lf 1006,4 hPa 0,0 l/m 0,00 h 0,10 h 7 W/m 25,7 km/h (4 Bft) 95,55 %
19.01.2018 09:00 2,8 C 2,7 C 1,7 C 97 % 15 lf 1007,3 hPa 0,0 l/m 0,00 h 0,30 h 25 W/m 18,7 km/h (3 Bft) 96,87 %
19.01.2018 10:00 3,4 C 3,8 C 1,8 C 97 % 14 lf 1007,9 hPa 0,0 l/m 0,90 h 0,23 h 163 W/m 25,1 km/h (4 Bft) 96,37 %
19.01.2018 11:00 4,4 C 8,2 C 3,1 C 92 % 1 lf 1008,4 hPa 0,0 l/m 0,97 h 0,17 h 274 W/m 30,3 km/h (5 Bft) 96,08 %
19.01.2018 12:00 4,6 C 7,0 C 3,1 C 89 % 0 lf 1008,4 hPa 0,0 l/m 0,30 h 0,00 h 165 W/m 27,0 km/h (4 Bft) 96,01 %
19.01.2018 13:00 4,8 C 6,3 C 3,6 C 88 % 0 lf 1008,2 hPa 0,0 l/m 0,10 h 0,00 h 135 W/m 21,8 km/h (4 Bft) 96,91 %
19.01.2018 14:00 5,1 C 6,8 C 3,8 C 85 % 0 lf 1008,0 hPa 0,0 l/m 0,53 h 0,00 h 146 W/m 26,6 km/h (4 Bft) 96,53 %
19.01.2018 15:00 5,4 C 6,4 C 3,7 C 81 % 0 lf 1007,9 hPa 0,0 l/m 0,53 h 0,00 h 105 W/m 26,9 km/h (4 Bft) 94,44 %
19.01.2018 16:00 4,5 C 4,1 C 2,5 C 82 % 0 lf 1007,9 hPa 0,0 l/m 0,00 h 0,00 h 20 W/m 17,6 km/h (3 Bft) 98,03 %
19.01.2018 17:00 3,8 C 3,0 C 1,3 C 84 % 0 lf 1007,8 hPa 0,0 l/m 0,00 h 0,00 h 5 W/m 12,3 km/h (3 Bft) 96,72 %
19.01.2018 18:00 3,2 C 2,7 C 1,1 C 87 % 0 lf 1008,0 hPa 0,0 l/m 0,00 h 0,00 h 0 W/m 15,5 km/h (3 Bft) 95,09 %
19.01.2018 19:00 2,9 C 2,6 C 1,1 C 88 % 0 lf 1008,1 hPa 0,0 l/m 0,00 h 0,00 h 0 W/m 13,9 km/h (3 Bft) 96,23 %
19.01.2018 20:00 2,8 C 2,7 C 1,2 C 89 % 0 lf 1008,2 hPa 0,0 l/m 0,00 h 0,00 h 0 W/m 15,2 km/h (3 Bft) 97,65 %
19.01.2018 21:00 2,9 C 2,5 C 1,0 C 90 % 0 lf 1008,3 hPa 0,0 l/m 0,00 h 0,00 h 0 W/m 20,0 km/h (4 Bft) 96,01 %
19.01.2018 22:00 2,4 C 1,9 C 0,6 C 90 % 0 lf 1008,5 hPa 0,0 l/m 0,00 h 0,00 h 0 W/m 14,6 km/h (3 Bft) 96,79 %
19.01.2018 23:00 2,3 C 2,2 C 0,6 C 91 % 0 lf 1008,5 hPa 0,0 l/m 0,00 h 0,00 h 0 W/m 17,7 km/h (3 Bft) 95,80 %
20.01.2018 00:00 2,4 C 2,4 C 1,0 C 91 % 0 lf 1008,5 hPa 0,0 l/m 0,00 h 0,07 h 0 W/m 19,8 km/h (4 Bft) 92,80 %
20.01.2018 01:00 2,6 C 2,6 C 1,3 C 91 % 5 lf 1008,6 hPa 0,2 l/m 0,00 h 0,30 h 0 W/m 17,9 km/h (3 Bft) 96,23 %
20.01.2018 02:00 2,3 C 1,8 C 0,6 C 92 % 15 lf 1008,4 hPa 0,0 l/m 0,00 h 0,13 h 0 W/m 10,1 km/h (2 Bft) 98,43 %
20.01.2018 03:00 2,2 C 1,7 C 0,3 C 93 % 8 lf 1008,1 hPa 0,0 l/m 0,00 h 0,00 h 0 W/m 17,3 km/h (3 Bft) 94,21 %
20.01.2018 04:00 1,9 C 1,4 C 0,0 C 93 % 0 lf 1007,5 hPa 0,0 l/m 0,00 h 0,03 h 0 W/m 17,0 km/h (3 Bft) 96,54 %
20.01.2018 05:00 2,0 C 1,7 C 0,0 C 94 % 0 lf 1007,0 hPa 0,0 l/m 0,00 h 0,15 h 0 W/m 17,7 km/h (3 Bft) 96,79 %
20.01.2018 06:00 2,1 C 2,0 C 0,4 C 94 % 0 lf 1006,5 hPa 0,0 l/m 0,00 h 0,13 h 0 W/m 19,4 km/h (3 Bft) 94,95 %
20.01.2018 07:00 2,2 C 2,0 C 0,4 C 93 % 0 lf 1006,2 hPa 0,0 l/m 0,00 h 0,00 h 0 W/m 15,0 km/h (3 Bft) 96,94 %
20.01.2018 08:00 2,2 C 2,2 C 0,7 C 94 % 0 lf 1005,7 hPa 0,0 l/m 0,00 h 0,00 h 11 W/m 14,0 km/h (3 Bft) 96,65 %
20.01.2018 09:00 2,5 C 2,9 C 1,5 C 93 % 0 lf 1005,2 hPa 0,0 l/m 0,00 h 0,00 h 50 W/m 12,5 km/h (3 Bft) 95,69 %
20.01.2018 10:00 2,8 C 3,6 C 2,5 C 93 % 0 lf 1004,6 hPa 0,0 l/m 0,00 h 0,00 h 97 W/m 12,1 km/h (2 Bft) 97,67 %
20.01.2018 11:00 3,2 C 3,9 C 3,1 C 92 % 0 lf 1003,7 hPa 0,0 l/m 0,00 h 0,07 h 93 W/m 11,7 km/h (2 Bft) 96,10 %
20.01.2018 12:00 3,6 C 3,1 C 2,5 C 92 % 4 lf 1002,6 hPa 0,2 l/m 0,00 h 0,97 h 55 W/m 11,6 km/h (2 Bft) 94,47 %
20.01.2018 13:00 3,5 C 2,8 C 2,2 C 93 % 13 lf 1001,2 hPa 0,4 l/m 0,00 h 1,00 h 43 W/m 10,4 km/h (2 Bft) 98,77 %
20.01.2018 14:00 3,2 C 2,7 C 2,1 C 95 % 14 lf 999,9 hPa 0,8 l/m 0,00 h 1,00 h 43 W/m 15,0 km/h (3 Bft) 96,41 %
20.01.2018 15:00 2,7 C 2,2 C 1,7 C 95 % 15 lf 999,2 hPa 0,6 l/m 0,00 h 1,00 h 39 W/m 12,2 km/h (2 Bft) 94,72 %
20.01.2018 16:00 2,5 C 2,0 C 1,3 C 95 % 15 lf 998,6 hPa 0,4 l/m 0,00 h 1,00 h 13 W/m 10,7 km/h (2 Bft) 97,66 %
20.01.2018 17:00 2,2 C 1,7 C 1,1 C 96 % 15 lf 998,4 hPa 0,0 l/m 0,00 h 0,73 h 3 W/m 7,1 km/h (2 Bft) 96,28 %
20.01.2018 18:00 2,1 C 1,7 C 1,1 C 96 % 15 lf 998,4 hPa 0,2 l/m 0,00 h 0,20 h 0 W/m 5,0 km/h (1 Bft) 97,42 %
20.01.2018 19:00 2,1 C 1,7 C 1,1 C 96 % 15 lf 998,7 hPa 0,0 l/m 0,00 h 0,57 h 0 W/m 0,0 km/h (0 Bft) 95,06 %
20.01.2018 20:00 2,2 C 2,0 C 1,1 C 97 % 15 lf 999,4 hPa 0,0 l/m 0,00 h 0,60 h 0 W/m 2,4 km/h (1 Bft) 96,52 %
20.01.2018 21:00 2,2 C 2,0 C 1,1 C 97 % 15 lf 1000,2 hPa 0,2 l/m 0,00 h 1,00 h 0 W/m 9,0 km/h (2 Bft) 96,59 %
20.01.2018 22:00 2,0 C 1,7 C 1,1 C 97 % 15 lf 1001,0 hPa 0,0 l/m 0,00 h 0,10 h 0 W/m 10,7 km/h (2 Bft) 97,57 %
20.01.2018 23:00 2,0 C 1,7 C 1,1 C 97 % 15 lf 1002,2 hPa 0,2 l/m 0,00 h 0,23 h 0 W/m 10,9 km/h (2 Bft) 94,74 %
21.01.2018 00:00 2,1 C 2,1 C 1,1 C 97 % 15 lf 1003,3 hPa 0,0 l/m 0,00 h 0,18 h 0 W/m 13,4 km/h (3 Bft) 96,72 %
21.01.2018 01:00 2,2 C 2,2 C 1,1 C 97 % 15 lf 1004,6 hPa 0,2 l/m 0,00 h 0,60 h 0 W/m 12,6 km/h (3 Bft) 96,45 %
21.01.2018 02:00 2,2 C 2,1 C 1,1 C 97 % 15 lf 1006,0 hPa 0,2 l/m 0,00 h 0,73 h 0 W/m 16,1 km/h (3 Bft) 97,58 %
21.01.2018 03:00 2,2 C 1,8 C 1,0 C 98 % 15 lf 1007,2 hPa 0,2 l/m 0,00 h 0,27 h 0 W/m 20,6 km/h (4 Bft) 94,90 %
21.01.2018 04:00 2,0 C 1,6 C 0,5 C 98 % 15 lf 1008,3 hPa 0,0 l/m 0,00 h 0,00 h 0 W/m 15,9 km/h (3 Bft) 97,22 %
21.01.2018 05:00 1,6 C 0,9 C -0,3 C 97 % 15 lf 1009,3 hPa 0,0 l/m 0,00 h 0,00 h 0 W/m 15,1 km/h (3 Bft) 97,07 %
21.01.2018 06:00 1,0 C 0,2 C -1,0 C 97 % 15 lf 1010,3 hPa 0,0 l/m 0,00 h 0,00 h 0 W/m 12,8 km/h (3 Bft) 95,92 %
21.01.2018 07:00 0,6 C 0,0 C -1,2 C 97 % 15 lf 1011,4 hPa 0,0 l/m 0,00 h 0,00 h 0 W/m 12,8 km/h (3 Bft) 97,37 %
21.01.2018 08:00 0,5 C 0,2 C -0,8 C 97 % 15 lf 1012,5 hPa 0,0 l/m 0,00 h 0,00 h 11 W/m 13,4 km/h (3 Bft) 94,59 %
21.01.2018 09:00 0,9 C 1,0 C -0,1 C 98 % 15 lf 1013,5 hPa 0,0 l/m 0,23 h 0,00 h 55 W/m 12,2 km/h (2 Bft) 97,51 %
21.01.2018 10:00 1,6 C 3,1 C 0,9 C 98 % 14 lf 1014,2 hPa 0,0 l/m 0,40 h 0,00 h 130 W/m 12,9 km/h (3 Bft) 97,79 %
21.01.2018 11:00 2,9 C 7,0 C 2,4 C 98 % 2 lf 1015,0 hPa 0,0 l/m 0,63 h 0,00 h 216 W/m 15,4 km/h (3 Bft) 95,58 %
21.01.2018 12:00 4,5 C 11,2 C 2,7 C 95 % 0 lf 1015,2 hPa 0,0 l/m 1,00 h 0,00 h 258 W/m 15,9 km/h (3 Bft) 96,52 %
21.01.2018 13:00 5,7 C 12,8 C 3,5 C 86 % 0 lf 1015,2 hPa 0,0 l/m 0,83 h 0,00 h 262 W/m 15,7 km/h (3 Bft) 94,02 %
21.01.2018 14:00 6,0 C 9,1 C 4,5 C 83 % 0 lf 1015,5 hPa 0,0 l/m 0,57 h 0,00 h 188 W/m 18,3 km/h (3 Bft) 95,02 %
21.01.2018 15:00 5,3 C 5,7 C 4,1 C 84 % 0 lf 1015,6 hPa 0,0 l/m 0,00 h 0,00 h 70 W/m 12,9 km/h (3 Bft) 96,87 %
21.01.2018 16:00 4,7 C 4,4 C 3,1 C 86 % 0 lf 1015,6 hPa 0,0 l/m 0,00 h 0,00 h 23 W/m 8,8 km/h (2 Bft) 95,16 %
21.01.2018 17:00 4,1 C 3,5 C 2,1 C 87 % 0 lf 1015,0 hPa 0,0 l/m 0,00 h 0,00 h 1 W/m 11,1 km/h (2 Bft) 96,93 %
21.01.2018 18:00 3,4 C 3,1 C 1,4 C 88 % 0 lf 1014,6 hPa 0,0 l/m 0,00 h 0,00 h 0 W/m 10,1 km/h (2 Bft) 97,90 %
21.01.2018 19:00 2,8 C 2,4 C 1,1 C 89 % 0 lf 1014,2 hPa 0,0 l/m 0,00 h 0,00 h 0 W/m 10,6 km/h (2 Bft) 93,73 %
21.01.2018 20:00 2,4 C 2,2 C 1,1 C 90 % 0 lf 1013,4 hPa 0,0 l/m 0,00 h 0,00 h 0 W/m 11,4 km/h (2 Bft) 96,79 %
21.01.2018 21:00 2,4 C 2,7 C 1,2 C 90 % 0 lf 1012,4 hPa 0,0 l/m 0,00 h 0,00 h 0 W/m 13,3 km/h (3 Bft) 98,35 %
21.01.2018 22:00 2,5 C 2,3 C 1,1 C 90 % 0 lf 1011,5 hPa 0,0 l/m 0,00 h 0,03 h 0 W/m 16,9 km/h (3 Bft) 94,24 %
21.01.2018 23:00 2,4 C 1,9 C 0,8 C 91 % 2 lf 1010,4 hPa 0,4 l/m 0,00 h 1,00 h 0 W/m 22,7 km/h (4 Bft) 96,58 %
Min-Datum _ 21.01.18 21.01.18 21.01.18 18.01.18 15.01.18 18.01.18 - - - - 18.01.18 20.01.18
_ Min-Zeit 07:04 07:44 06:46 10:46 00:00 09:46 - - - - 22:06 00:02
Minimum _ 0,5 C -0,6 C -1,7 C 66 % 0 lf 987,7 hPa - - - - 0,0 km/h (0 Bft) 12,50 %
Max-Datum _ 18.01.18 21.01.18 18.01.18 21.01.18 15.01.18 15.01.18 16.01.18 15.01.18 17.01.18 21.01.18 18.01.18 15.01.18
_ Max-Zeit 10:16 13:16 10:24 02:34 14:16 00:00 10:20 08:54 04:05 13:52 11:04 00:14
Maximum _ 10,3 C 16,1 C 8,9 C 98 % 15 lf 1017,5 hPa 4,4 l/m 0,03 h 0,08 h 427 W/m 110,4 km/h
W (11 Bft)
100,00 %
Durchschnitt _ 3,6 C 3,6 C 2,0 C 91 % 8 lf 1002,3 hPa #37,2 l/m #10:56 h #48:21 h 73 W/m 23,9 km/h (4 Bft) 96,37 %
© 2018 W. Hausmann